createdAt,value
2022-12-01T00:01:06.060Z,102912.94
2022-12-01T00:03:33.287Z,102912.03
2022-12-01T00:06:04.666Z,102904.03
2022-12-01T00:08:31.926Z,102902.25
2022-12-01T00:11:12.186Z,102904.00
2022-12-01T00:13:38.695Z,102898.59
2022-12-01T00:16:13.574Z,102902.09
2022-12-01T00:18:40.191Z,102906.50
2022-12-01T00:21:07.011Z,102903.88
2022-12-01T00:23:33.404Z,102903.91
2022-12-01T00:26:06.129Z,102906.59
2022-12-01T00:28:32.517Z,102901.44
2022-12-01T00:31:00.102Z,102895.25
2022-12-01T00:33:26.517Z,102902.31
2022-12-01T00:36:00.548Z,102900.53
2022-12-01T00:38:27.631Z,102893.44
2022-12-01T00:40:54.050Z,102895.22
2022-12-01T00:43:20.448Z,102897.00
2022-12-01T00:45:46.947Z,102900.75
2022-12-01T00:48:13.361Z,102900.81
2022-12-01T00:50:39.771Z,102896.38
2022-12-01T00:53:06.171Z,102884.88
2022-12-01T00:55:32.579Z,102873.34
2022-12-01T00:57:58.987Z,102879.47
2022-12-01T01:00:25.462Z,102878.50
2022-12-01T01:02:51.918Z,102892.56
2022-12-01T01:05:18.656Z,102890.69
2022-12-01T01:07:45.129Z,102896.78
2022-12-01T01:10:11.948Z,102896.72
2022-12-01T01:12:38.336Z,102897.59
2022-12-01T01:15:06.886Z,102894.84
2022-12-01T01:17:34.052Z,102890.31
2022-12-01T01:20:00.455Z,102899.16
2022-12-01T01:22:26.882Z,102899.97
2022-12-01T01:24:54.354Z,102901.03
2022-12-01T01:27:20.740Z,102904.72
2022-12-01T01:29:47.410Z,102913.44
2022-12-01T01:32:14.029Z,102916.03
2022-12-01T01:34:40.400Z,102922.34
2022-12-01T01:37:06.792Z,102918.88
2022-12-01T01:39:33.258Z,102920.59
2022-12-01T01:41:59.649Z,102917.13
2022-12-01T01:44:49.981Z,102924.09
2022-12-01T01:47:21.883Z,102923.28
2022-12-01T01:49:48.982Z,102925.03
2022-12-01T01:52:16.407Z,102927.00
2022-12-01T01:54:46.707Z,102933.19
2022-12-01T01:57:16.756Z,102929.44
2022-12-01T01:59:52.515Z,102926.66
2022-12-01T02:02:18.921Z,102924.81
2022-12-01T02:04:48.520Z,102930.03
2022-12-01T02:07:17.821Z,102926.44
2022-12-01T02:09:44.602Z,102922.84
2022-12-01T02:12:13.965Z,102920.13
2022-12-01T02:14:57.103Z,102919.19
2022-12-01T02:17:42.259Z,102914.78
2022-12-01T02:20:11.585Z,102912.97
2022-12-01T02:23:01.736Z,102912.06
2022-12-01T02:26:19.465Z,102914.69
2022-12-01T02:29:03.416Z,102913.78
2022-12-01T02:31:36.698Z,102911.19
2022-12-01T02:34:13.252Z,102906.75
2022-12-01T02:36:48.716Z,102906.81
2022-12-01T02:39:25.054Z,102899.78
2022-12-01T02:41:57.911Z,102912.34
2022-12-01T02:44:35.196Z,102917.03
2022-12-01T02:47:10.660Z,102918.06
2022-12-01T02:49:43.135Z,102914.59
2022-12-01T02:52:11.353Z,102920.84
2022-12-01T02:54:38.424Z,102904.03
2022-12-01T02:57:05.233Z,102901.38
2022-12-01T02:59:31.657Z,102910.31
2022-12-01T03:02:04.475Z,102901.47
2022-12-01T03:04:38.899Z,102902.38
2022-12-01T03:07:15.514Z,102899.78
2022-12-01T03:10:08.821Z,102905.19
2022-12-01T03:12:54.688Z,102894.59
2022-12-01T03:15:32.880Z,102893.66
2022-12-01T03:18:20.618Z,102890.13
2022-12-01T03:20:56.855Z,102892.78
2022-12-01T03:23:28.888Z,102902.56
2022-12-01T03:25:58.923Z,102890.19
2022-12-01T03:28:32.340Z,102893.75
2022-12-01T03:31:05.424Z,102897.34
2022-12-01T03:33:38.959Z,102901.84
2022-12-01T03:36:08.159Z,102900.06
2022-12-01T03:38:37.246Z,102906.31
2022-12-01T03:41:09.443Z,102903.66
2022-12-01T03:43:40.944Z,102903.66
2022-12-01T03:46:15.205Z,102913.47
2022-12-01T03:48:42.152Z,102907.25
2022-12-01T03:51:15.236Z,102901.03
2022-12-01T03:54:00.100Z,102909.97
2022-12-01T03:56:31.892Z,102908.22
2022-12-01T03:59:01.076Z,102918.00
2022-12-01T04:01:32.770Z,102903.84
2022-12-01T04:04:11.734Z,102910.13
2022-12-01T04:06:40.754Z,102909.19
2022-12-01T04:09:07.149Z,102915.44
2022-12-01T04:11:52.216Z,102916.31
2022-12-01T04:14:18.705Z,102919.88
2022-12-01T04:16:45.109Z,102927.03
2022-12-01T04:19:11.793Z,102918.16
2022-12-01T04:21:38.349Z,102915.47
2022-12-01T04:24:04.996Z,102912.78
2022-12-01T04:26:34.215Z,102915.47
2022-12-01T04:29:01.773Z,102919.03
2022-12-01T04:31:28.450Z,102930.59
2022-12-01T04:33:55.929Z,102927.03
2022-12-01T04:36:23.360Z,102929.72
2022-12-01T04:38:49.937Z,102922.59
2022-12-01T04:41:16.589Z,102920.81
2022-12-01T04:43:42.983Z,102921.72
2022-12-01T04:46:09.760Z,102927.06
2022-12-01T04:48:37.831Z,102924.41
2022-12-01T04:51:06.056Z,102922.59
2022-12-01T04:53:33.055Z,102925.28
2022-12-01T04:56:01.026Z,102911.03
2022-12-01T04:58:32.003Z,102919.94
2022-12-01T05:01:03.615Z,102913.72
2022-12-01T05:03:30.208Z,102914.59
2022-12-01T05:06:09.397Z,102919.06
2022-12-01T05:08:36.041Z,102916.38
2022-12-01T05:11:02.996Z,102916.38
2022-12-01T05:13:29.422Z,102919.94
2022-12-01T05:16:08.074Z,102924.41
2022-12-01T05:18:35.164Z,102918.13
2022-12-01T05:21:03.947Z,102926.13
2022-12-01T05:23:32.540Z,102919.91
2022-12-01T05:25:59.685Z,102919.03
2022-12-01T05:28:26.853Z,102911.91
2022-12-01T05:30:54.379Z,102915.47
2022-12-01T05:33:22.328Z,102924.34
2022-12-01T05:35:49.348Z,102913.69
2022-12-01T05:38:15.776Z,102914.53
2022-12-01T05:40:42.367Z,102913.66
2022-12-01T05:43:09.107Z,102923.47
2022-12-01T05:45:35.841Z,102919.91
2022-12-01T05:48:02.825Z,102919.91
2022-12-01T05:50:30.340Z,102933.25
2022-12-01T05:52:57.238Z,102926.13
2022-12-01T05:55:23.698Z,102927.91
2022-12-01T05:57:50.173Z,102927.03
2022-12-01T06:00:17.175Z,102931.50
2022-12-01T06:02:43.675Z,102935.03
2022-12-01T06:05:10.503Z,102930.59
2022-12-01T06:07:36.979Z,102936.81
2022-12-01T06:10:04.233Z,102940.38
2022-12-01T06:12:30.635Z,102935.91
2022-12-01T06:14:57.038Z,102936.81
2022-12-01T06:17:23.528Z,102943.91
2022-12-01T06:19:50.119Z,102935.91
2022-12-01T06:22:16.798Z,102937.69
2022-12-01T06:24:43.195Z,102943.03
2022-12-01T06:27:09.759Z,102944.81
2022-12-01T06:29:41.827Z,102946.56
2022-12-01T06:32:08.881Z,102942.09
2022-12-01T06:34:35.355Z,102935.88
2022-12-01T06:37:01.752Z,102939.44
2022-12-01T06:39:28.094Z,102944.78
2022-12-01T06:41:54.477Z,102939.44
2022-12-01T06:44:20.856Z,102943.88
2022-12-01T06:46:47.230Z,102942.13
2022-12-01T06:49:13.619Z,102942.13
2022-12-01T06:51:40.255Z,102938.53
2022-12-01T06:54:06.721Z,102941.19
2022-12-01T06:56:33.163Z,102941.22
2022-12-01T06:59:00.044Z,102942.13
2022-12-01T07:01:26.942Z,102950.13
2022-12-01T07:03:53.531Z,102951.91
2022-12-01T07:06:19.853Z,102954.59
2022-12-01T07:08:46.435Z,102969.75
2022-12-01T07:11:15.148Z,102959.03
2022-12-01T07:13:42.802Z,102969.72
2022-12-01T07:16:09.624Z,102968.81
2022-12-01T07:18:40.540Z,102964.38
2022-12-01T07:21:10.171Z,102962.59
2022-12-01T07:23:36.728Z,102974.19
2022-12-01T07:26:04.559Z,102978.59
2022-12-01T07:28:31.351Z,102981.28
2022-12-01T07:31:09.666Z,102979.50
2022-12-01T07:33:36.802Z,102986.59
2022-12-01T07:36:04.825Z,102988.41
2022-12-01T07:38:32.662Z,102989.28
2022-12-01T07:41:03.905Z,102990.16
2022-12-01T07:43:32.043Z,102998.19
2022-12-01T07:46:25.702Z,102982.16
2022-12-01T07:48:53.758Z,102990.16
2022-12-01T07:51:21.140Z,102994.59
2022-12-01T07:53:49.295Z,103000.88
2022-12-01T07:56:16.869Z,102985.72
2022-12-01T07:58:43.262Z,102999.97
2022-12-01T08:01:16.251Z,102996.41
2022-12-01T08:03:43.518Z,103002.63
2022-12-01T08:06:10.529Z,103005.31
2022-12-01T08:08:38.595Z,103001.72
2022-12-01T08:11:09.595Z,103001.75
2022-12-01T08:13:36.061Z,103006.19
2022-12-01T08:16:07.917Z,103001.72
2022-12-01T08:18:39.584Z,103007.91
2022-12-01T08:21:07.730Z,103011.47
2022-12-01T08:23:34.340Z,103004.34
2022-12-01T08:26:02.341Z,103008.78
2022-12-01T08:28:29.070Z,103002.56
2022-12-01T08:30:55.629Z,103004.31
2022-12-01T08:33:22.689Z,103005.19
2022-12-01T08:35:49.120Z,103014.97
2022-12-01T08:38:16.007Z,103013.19
2022-12-01T08:40:42.367Z,103007.81
2022-12-01T08:43:12.348Z,103020.28
2022-12-01T08:45:45.114Z,103016.69
2022-12-01T08:48:11.509Z,103018.44
2022-12-01T08:50:37.945Z,103015.78
2022-12-01T08:53:04.336Z,103022.00
2022-12-01T08:55:30.736Z,103022.03
2022-12-01T08:57:58.216Z,103013.13
2022-12-01T09:00:24.772Z,103011.38
2022-12-01T09:02:51.217Z,103022.06
2022-12-01T09:05:17.676Z,103013.16
2022-12-01T09:07:45.551Z,103018.47
2022-12-01T09:10:12.024Z,103014.00
2022-12-01T09:12:38.451Z,103015.81
2022-12-01T09:15:05.328Z,103009.53
2022-12-01T09:17:31.732Z,103009.50
2022-12-01T09:19:58.112Z,103009.50
2022-12-01T09:22:24.517Z,103009.50
2022-12-01T09:24:50.908Z,103007.72
2022-12-01T09:27:17.271Z,103002.28
2022-12-01T09:29:43.651Z,103010.28
2022-12-01T09:32:10.171Z,103009.34
2022-12-01T09:34:36.587Z,103007.41
2022-12-01T09:37:03.262Z,103001.06
2022-12-01T09:39:29.828Z,103008.09
2022-12-01T09:42:07.667Z,103008.09
2022-12-01T09:44:40.559Z,103008.97
2022-12-01T09:47:19.460Z,103002.69
2022-12-01T09:50:03.050Z,103004.56
2022-12-01T09:52:37.311Z,103003.56
2022-12-01T09:55:06.938Z,103005.91
2022-12-01T09:57:36.539Z,103002.22
2022-12-01T10:00:11.534Z,102994.19
2022-12-01T10:02:47.717Z,102994.09
2022-12-01T10:05:21.727Z,102994.72
2022-12-01T10:08:11.900Z,102988.47
2022-12-01T10:10:42.752Z,102994.72
2022-12-01T10:13:24.303Z,102989.47
2022-12-01T10:15:53.655Z,102990.25
2022-12-01T10:18:49.218Z,102999.00
2022-12-01T10:21:15.747Z,102990.91
2022-12-01T10:24:10.796Z,102998.91
2022-12-01T10:27:03.478Z,102994.22
2022-12-01T10:29:48.080Z,102993.25
2022-12-01T10:32:30.576Z,102990.84
2022-12-01T10:34:57.647Z,102991.75
2022-12-01T10:37:27.442Z,102984.81
2022-12-01T10:39:55.996Z,102983.09
2022-12-01T10:42:32.531Z,102974.13
2022-12-01T10:45:06.437Z,102972.47
2022-12-01T10:47:33.267Z,102965.22
2022-12-01T10:49:59.803Z,102979.28
2022-12-01T10:52:35.091Z,102981.81
2022-12-01T10:55:03.536Z,102972.22
2022-12-01T10:57:31.779Z,102972.34
2022-12-01T11:00:05.980Z,102971.50
2022-12-01T11:02:33.199Z,102973.19
2022-12-01T11:05:06.523Z,102966.09
2022-12-01T11:07:41.444Z,102969.66
2022-12-01T11:10:30.232Z,102957.94
2022-12-01T11:13:16.515Z,102962.44
2022-12-01T11:15:53.598Z,102957.06
2022-12-01T11:18:33.592Z,102965.84
2022-12-01T11:21:13.508Z,102957.59
2022-12-01T11:23:48.291Z,102950.72
2022-12-01T11:26:20.607Z,102951.59
2022-12-01T11:28:53.462Z,102951.28
2022-12-01T11:31:22.815Z,102946.75
2022-12-01T11:33:55.171Z,102947.50
2022-12-01T11:36:44.227Z,102941.34
2022-12-01T11:39:21.281Z,102933.34
2022-12-01T11:41:47.726Z,102930.56
2022-12-01T11:44:43.565Z,102935.00
2022-12-01T11:47:25.304Z,102932.91
2022-12-01T11:49:57.594Z,102925.31
2022-12-01T11:52:36.392Z,102932.31
2022-12-01T11:55:21.964Z,102931.31
2022-12-01T11:57:51.837Z,102926.06
2022-12-01T12:00:22.480Z,102928.44
2022-12-01T12:02:58.156Z,102926.53
2022-12-01T12:05:34.062Z,102922.47
2022-12-01T12:08:29.975Z,102924.16
2022-12-01T12:11:16.241Z,102920.63
2022-12-01T12:14:04.310Z,102919.66
2022-12-01T12:16:45.611Z,102923.22
2022-12-01T12:19:28.941Z,102924.09
2022-12-01T12:22:29.540Z,102919.25
2022-12-01T12:25:25.387Z,102914.34
2022-12-01T12:28:22.899Z,102918.28
2022-12-01T12:31:14.193Z,102916.59
2022-12-01T12:33:52.779Z,102922.19
2022-12-01T12:36:30.078Z,102925.25
2022-12-01T12:39:13.616Z,102928.22
2022-12-01T12:41:46.279Z,102925.75
2022-12-01T12:44:32.364Z,102923.63
2022-12-01T12:47:16.854Z,102918.50
2022-12-01T12:50:06.297Z,102919.41
2022-12-01T12:52:44.591Z,102901.94
2022-12-01T12:55:24.715Z,102898.53
2022-12-01T12:57:59.136Z,102896.66
2022-12-01T13:00:26.610Z,102899.94
2022-12-01T13:03:13.986Z,102904.50
2022-12-01T13:05:51.281Z,102905.81
2022-12-01T13:08:30.088Z,102902.47
2022-12-01T13:11:06.732Z,102907.38
2022-12-01T13:13:42.660Z,102902.22
2022-12-01T13:16:19.270Z,102900.50
2022-12-01T13:18:52.672Z,102902.44
2022-12-01T13:21:21.682Z,102898.97
2022-12-01T13:23:50.713Z,102893.72
2022-12-01T13:26:20.503Z,102891.91
2022-12-01T13:28:51.488Z,102887.53
2022-12-01T13:31:19.813Z,102892.06
2022-12-01T13:33:55.832Z,102888.53
2022-12-01T13:36:45.769Z,102884.91
2022-12-01T13:39:35.574Z,102879.63
2022-12-01T13:42:25.825Z,102885.06
2022-12-01T13:44:56.243Z,102878.81
2022-12-01T13:47:22.639Z,102878.91
2022-12-01T13:49:50.819Z,102878.94
2022-12-01T13:52:23.264Z,102879.84
2022-12-01T13:55:07.923Z,102879.88
2022-12-01T13:57:39.926Z,102878.16
2022-12-01T14:00:21.366Z,102880.84
2022-12-01T14:03:20.048Z,102874.59
2022-12-01T14:05:53.131Z,102873.66
2022-12-01T14:08:34.362Z,102876.34
2022-12-01T14:11:05.628Z,102876.25
2022-12-01T14:13:44.412Z,102868.91
2022-12-01T14:16:11.055Z,102874.22
2022-12-01T14:18:43.103Z,102876.94
2022-12-01T14:21:12.339Z,102863.63
2022-12-01T14:23:58.364Z,102868.19
2022-12-01T14:26:25.251Z,102860.25
2022-12-01T14:29:03.536Z,102863.88
2022-12-01T14:31:33.139Z,102861.38
2022-12-01T14:34:03.907Z,102853.47
2022-12-01T14:36:57.522Z,102859.84
2022-12-01T14:39:38.130Z,102857.28
2022-12-01T14:42:10.460Z,102860.84
2022-12-01T14:44:53.995Z,102856.34
2022-12-01T14:47:46.818Z,102856.25
2022-12-01T14:50:19.505Z,102849.94
2022-12-01T14:53:06.468Z,102857.09
2022-12-01T14:55:42.033Z,102858.84
2022-12-01T14:58:17.116Z,102853.47
2022-12-01T15:01:10.856Z,102857.97
2022-12-01T15:03:47.013Z,102847.31
2022-12-01T15:06:22.286Z,102851.81
2022-12-01T15:09:32.223Z,102853.53
2022-12-01T15:11:53.016Z,102856.22
2022-12-01T15:14:34.891Z,102850.88
2022-12-01T15:17:04.987Z,102859.00
2022-12-01T15:19:37.533Z,102857.31
2022-12-01T15:22:13.774Z,102859.19
2022-12-01T15:24:40.939Z,102861.13
2022-12-01T15:27:25.175Z,102862.13
2022-12-01T15:29:52.361Z,102858.72
2022-12-01T15:32:21.207Z,102866.88
2022-12-01T15:34:50.905Z,102865.06
2022-12-01T15:37:22.746Z,102867.00
2022-12-01T15:39:52.624Z,102863.56
2022-12-01T15:42:29.462Z,102861.81
2022-12-01T15:45:00.564Z,102866.28
2022-12-01T15:47:46.412Z,102872.50
2022-12-01T15:50:37.695Z,102877.03
2022-12-01T15:53:25.047Z,102874.41
2022-12-01T15:55:58.535Z,102872.63
2022-12-01T15:58:34.776Z,102870.00
2022-12-01T16:01:20.960Z,102875.41
2022-12-01T16:03:54.160Z,102867.38
2022-12-01T16:06:24.807Z,102862.97
2022-12-01T16:09:03.882Z,102869.22
2022-12-01T16:11:30.579Z,102874.56
2022-12-01T16:14:06.086Z,102872.78
2022-12-01T16:16:49.351Z,102875.47
2022-12-01T16:19:18.920Z,102874.56
2022-12-01T16:21:57.513Z,102876.34
2022-12-01T16:24:29.319Z,102872.78
2022-12-01T16:27:01.078Z,102867.44
2022-12-01T16:29:30.015Z,102869.22
2022-12-01T16:32:23.422Z,102871.91
2022-12-01T16:34:52.421Z,102868.31
2022-12-01T16:37:19.504Z,102867.44
2022-12-01T16:39:45.912Z,102858.53
2022-12-01T16:42:17.681Z,102857.66
2022-12-01T16:44:46.310Z,102860.28
2022-12-01T16:47:14.264Z,102865.66
2022-12-01T16:49:40.835Z,102861.19
2022-12-01T16:52:36.466Z,102861.16
2022-12-01T16:54:53.611Z,102860.22
2022-12-01T16:57:19.964Z,102856.66
2022-12-01T16:59:46.322Z,102860.25
2022-12-01T17:02:12.726Z,102862.03
2022-12-01T17:04:39.161Z,102859.38
2022-12-01T17:07:05.608Z,102863.81
2022-12-01T17:09:32.208Z,102863.81
2022-12-01T17:11:59.265Z,102867.41
2022-12-01T17:14:25.747Z,102859.38
2022-12-01T17:16:52.096Z,102871.84
2022-12-01T17:19:20.873Z,102863.81
2022-12-01T17:21:47.274Z,102859.38
2022-12-01T17:24:18.668Z,102870.94
2022-12-01T17:26:45.534Z,102875.38
2022-12-01T17:29:11.906Z,102873.59
2022-12-01T17:31:38.441Z,102863.81
2022-12-01T17:34:04.887Z,102870.03
2022-12-01T17:36:31.304Z,102866.47
2022-12-01T17:38:58.665Z,102870.91
2022-12-01T17:41:32.050Z,102870.00
2022-12-01T17:43:58.615Z,102870.84
2022-12-01T17:46:25.433Z,102863.75
2022-12-01T17:48:51.910Z,102863.75
2022-12-01T17:51:18.540Z,102861.94
2022-12-01T17:53:45.044Z,102861.06
2022-12-01T17:56:13.615Z,102853.94
2022-12-01T17:58:40.741Z,102861.06
2022-12-01T18:01:14.011Z,102860.16
2022-12-01T18:03:40.646Z,102865.50
2022-12-01T18:06:07.455Z,102859.25
2022-12-01T18:08:35.534Z,102857.47
2022-12-01T18:11:07.616Z,102861.94
2022-12-01T18:13:43.691Z,102867.22
2022-12-01T18:16:13.477Z,102865.44
2022-12-01T18:18:40.463Z,102865.44
2022-12-01T18:21:09.506Z,102861.88
2022-12-01T18:23:36.409Z,102861.88
2022-12-01T18:26:15.748Z,102858.28
2022-12-01T18:28:42.963Z,102860.94
2022-12-01T18:31:11.913Z,102857.34
2022-12-01T18:33:40.361Z,102857.34
2022-12-01T18:36:12.931Z,102862.72
2022-12-01T18:38:40.362Z,102854.72
2022-12-01T18:41:07.058Z,102857.41
2022-12-01T18:43:33.839Z,102863.63
2022-12-01T18:46:02.357Z,102860.94
2022-12-01T18:48:28.743Z,102862.72
2022-12-01T18:50:59.458Z,102860.94
2022-12-01T18:53:26.932Z,102867.19
2022-12-01T18:55:53.308Z,102861.84
2022-12-01T18:58:19.656Z,102863.59
2022-12-01T19:00:46.163Z,102861.78
2022-12-01T19:03:12.598Z,102865.31
2022-12-01T19:05:39.935Z,102861.72
2022-12-01T19:08:06.555Z,102859.03
2022-12-01T19:10:33.227Z,102860.78
2022-12-01T19:12:59.637Z,102867.88
2022-12-01T19:15:26.016Z,102860.72
2022-12-01T19:17:52.393Z,102864.28
2022-12-01T19:20:18.876Z,102864.19
2022-12-01T19:22:45.260Z,102864.19
2022-12-01T19:25:13.341Z,102870.41
2022-12-01T19:27:40.569Z,102864.19
2022-12-01T19:30:07.794Z,102866.88
2022-12-01T19:32:34.423Z,102861.53
2022-12-01T19:35:00.823Z,102861.56
2022-12-01T19:37:27.265Z,102855.34
2022-12-01T19:39:53.616Z,102861.56
2022-12-01T19:42:20.028Z,102867.78
2022-12-01T19:44:46.379Z,102850.81
2022-12-01T19:47:13.972Z,102856.22
2022-12-01T19:49:42.915Z,102861.56
2022-12-01T19:52:09.304Z,102857.09
2022-12-01T19:54:37.634Z,102854.41
2022-12-01T19:57:04.078Z,102852.66
2022-12-01T19:59:30.523Z,102860.69
2022-12-01T20:01:56.953Z,102854.47
2022-12-01T20:04:23.949Z,102865.16
2022-12-01T20:06:50.424Z,102860.69
2022-12-01T20:09:16.872Z,102860.69
2022-12-01T20:11:43.215Z,102856.22
2022-12-01T20:14:09.888Z,102859.78
2022-12-01T20:16:36.563Z,102866.91
2022-12-01T20:19:04.318Z,102866.03
2022-12-01T20:21:34.914Z,102876.75
2022-12-01T20:24:04.134Z,102866.97
2022-12-01T20:26:40.020Z,102873.22
2022-12-01T20:29:12.699Z,102868.75
2022-12-01T20:31:39.743Z,102876.78
2022-12-01T20:34:11.450Z,102875.91
2022-12-01T20:36:38.717Z,102877.66
2022-12-01T20:39:07.115Z,102882.13
2022-12-01T20:41:34.551Z,102883.88
2022-12-01T20:44:06.693Z,102881.16
2022-12-01T20:46:34.391Z,102876.72
2022-12-01T20:49:00.758Z,102868.72
2022-12-01T20:51:27.258Z,102882.09
2022-12-01T20:54:19.807Z,102876.75
2022-12-01T20:56:40.124Z,102871.38
2022-12-01T20:59:07.820Z,102873.19
2022-12-01T21:01:34.497Z,102871.44
2022-12-01T21:04:01.113Z,102867.84
2022-12-01T21:06:29.111Z,102866.97
2022-12-01T21:08:55.768Z,102868.75
2022-12-01T21:12:08.386Z,102875.91
2022-12-01T21:15:01.251Z,102875.06
2022-12-01T21:17:30.690Z,102867.91
2022-12-01T21:20:09.350Z,102856.34
2022-12-01T21:22:36.490Z,102859.03
2022-12-01T21:25:12.027Z,102859.06
2022-12-01T21:27:38.503Z,102862.66
2022-12-01T21:30:20.081Z,102862.66
2022-12-01T21:32:47.916Z,102859.97
2022-12-01T21:35:18.258Z,102854.66
2022-12-01T21:37:45.494Z,102857.34
2022-12-01T21:40:15.016Z,102864.47
2022-12-01T21:42:41.515Z,102859.13
2022-12-01T21:45:17.087Z,102863.59
2022-12-01T21:47:43.567Z,102859.13
2022-12-01T21:50:20.965Z,102865.41
2022-12-01T21:52:48.056Z,102861.81
2022-12-01T21:55:14.396Z,102864.50
2022-12-01T21:57:50.135Z,102865.41
2022-12-01T22:00:36.857Z,102858.28
2022-12-01T22:03:09.291Z,102860.97
2022-12-01T22:05:38.567Z,102849.34
2022-12-01T22:08:13.714Z,102845.78
2022-12-01T22:10:59.790Z,102848.47
2022-12-01T22:13:49.606Z,102845.78
2022-12-01T22:16:30.202Z,102851.19
2022-12-01T22:19:02.243Z,102842.28
2022-12-01T22:21:34.499Z,102836.06
2022-12-01T22:24:06.447Z,102836.94
2022-12-01T22:26:34.442Z,102831.63
2022-12-01T22:29:00.995Z,102827.16
2022-12-01T22:31:28.523Z,102832.53
2022-12-01T22:34:03.397Z,102843.22
2022-12-01T22:36:31.700Z,102849.44
2022-12-01T22:38:58.091Z,102834.31
2022-12-01T22:41:24.560Z,102835.22
2022-12-01T22:44:00.599Z,102834.34
2022-12-01T22:46:29.170Z,102837.91
2022-12-01T22:49:10.621Z,102836.09
2022-12-01T22:51:46.203Z,102844.13
2022-12-01T22:54:12.564Z,102845.03
2022-12-01T22:56:43.798Z,102837.03
2022-12-01T22:59:14.659Z,102839.69
2022-12-01T23:01:54.287Z,102840.56
2022-12-01T23:04:31.096Z,102838.81
2022-12-01T23:07:02.547Z,102840.56
2022-12-01T23:09:43.291Z,102839.69
2022-12-01T23:12:09.661Z,102834.34
2022-12-01T23:14:40.001Z,102833.47
2022-12-01T23:17:12.850Z,102839.69
2022-12-01T23:19:39.272Z,102833.47
2022-12-01T23:22:05.677Z,102835.25
2022-12-01T23:24:34.076Z,102821.00
2022-12-01T23:27:00.847Z,102821.91
2022-12-01T23:29:27.261Z,102823.72
2022-12-01T23:31:53.796Z,102814.81
2022-12-01T23:34:20.445Z,102813.06
2022-12-01T23:36:49.926Z,102806.81
2022-12-01T23:39:18.402Z,102813.06
2022-12-01T23:41:47.283Z,102816.63
2022-12-01T23:44:22.735Z,102817.53
2022-12-01T23:46:53.126Z,102811.31
2022-12-01T23:49:22.472Z,102809.53
2022-12-01T23:51:54.044Z,102804.19
2022-12-01T23:54:26.472Z,102805.06
2022-12-01T23:56:55.688Z,102808.63
2022-12-01T23:59:22.579Z,102805.94
